sensor_id;sensor_type;location;lat;lon;timestamp;P1;durP1;ratioP1;P2;durP2;ratioP2
58338;SDS011;48278;52.704;6.536;2023-02-15T00:01:40;268.58;;;75.07;;
58338;SDS011;48278;52.704;6.536;2023-02-15T00:04:07;230.43;;;63.83;;
58338;SDS011;48278;52.704;6.536;2023-02-15T00:06:34;219.23;;;62.20;;
58338;SDS011;48278;52.704;6.536;2023-02-15T00:09:00;212.88;;;59.42;;
58338;SDS011;48278;52.704;6.536;2023-02-15T00:11:26;204.23;;;59.85;;
58338;SDS011;48278;52.704;6.536;2023-02-15T00:14:21;217.95;;;59.92;;
58338;SDS011;48278;52.704;6.536;2023-02-15T00:16:48;222.02;;;61.20;;
58338;SDS011;48278;52.704;6.536;2023-02-15T00:19:16;218.98;;;60.15;;
58338;SDS011;48278;52.704;6.536;2023-02-15T00:24:09;223.00;;;56.90;;
58338;SDS011;48278;52.704;6.536;2023-02-15T00:26:40;222.55;;;63.22;;
58338;SDS011;48278;52.704;6.536;2023-02-15T00:29:06;225.13;;;60.28;;
58338;SDS011;48278;52.704;6.536;2023-02-15T00:31:33;213.88;;;58.15;;
58338;SDS011;48278;52.704;6.536;2023-02-15T00:34:06;239.87;;;60.43;;
58338;SDS011;48278;52.704;6.536;2023-02-15T00:36:35;309.38;;;68.97;;
58338;SDS011;48278;52.704;6.536;2023-02-15T00:39:01;299.08;;;71.63;;
58338;SDS011;48278;52.704;6.536;2023-02-15T00:41:28;322.13;;;71.50;;
58338;SDS011;48278;52.704;6.536;2023-02-15T00:43:53;311.77;;;68.15;;
58338;SDS011;48278;52.704;6.536;2023-02-15T00:46:19;303.92;;;72.10;;
58338;SDS011;48278;52.704;6.536;2023-02-15T00:48:45;289.63;;;69.38;;
58338;SDS011;48278;52.704;6.536;2023-02-15T00:51:10;318.77;;;72.93;;
58338;SDS011;48278;52.704;6.536;2023-02-15T00:53:36;316.98;;;73.50;;
58338;SDS011;48278;52.704;6.536;2023-02-15T00:56:02;318.30;;;73.45;;
58338;SDS011;48278;52.704;6.536;2023-02-15T00:58:27;310.88;;;70.60;;
58338;SDS011;48278;52.704;6.536;2023-02-15T01:00:53;263.08;;;66.18;;
58338;SDS011;48278;52.704;6.536;2023-02-15T01:03:20;263.27;;;65.00;;
58338;SDS011;48278;52.704;6.536;2023-02-15T01:05:47;248.20;;;60.80;;
58338;SDS011;48278;52.704;6.536;2023-02-15T01:10:39;229.45;;;57.50;;
58338;SDS011;48278;52.704;6.536;2023-02-15T01:13:05;222.20;;;59.45;;
58338;SDS011;48278;52.704;6.536;2023-02-15T01:15:33;225.43;;;58.58;;
58338;SDS011;48278;52.704;6.536;2023-02-15T01:18:00;233.65;;;59.47;;
58338;SDS011;48278;52.704;6.536;2023-02-15T01:20:27;238.38;;;57.83;;
58338;SDS011;48278;52.704;6.536;2023-02-15T01:25:21;238.43;;;57.13;;
58338;SDS011;48278;52.704;6.536;2023-02-15T01:27:48;206.90;;;55.25;;
58338;SDS011;48278;52.704;6.536;2023-02-15T01:30:14;208.38;;;54.95;;
58338;SDS011;48278;52.704;6.536;2023-02-15T01:32:41;202.50;;;55.28;;
58338;SDS011;48278;52.704;6.536;2023-02-15T01:35:07;194.47;;;56.17;;
58338;SDS011;48278;52.704;6.536;2023-02-15T01:37:34;190.18;;;53.72;;
58338;SDS011;48278;52.704;6.536;2023-02-15T01:40:03;174.07;;;50.97;;
58338;SDS011;48278;52.704;6.536;2023-02-15T01:42:31;177.25;;;51.60;;
58338;SDS011;48278;52.704;6.536;2023-02-15T01:44:58;173.18;;;49.45;;
58338;SDS011;48278;52.704;6.536;2023-02-15T01:50:00;175.43;;;51.85;;
58338;SDS011;48278;52.704;6.536;2023-02-15T01:52:31;176.05;;;49.65;;
58338;SDS011;48278;52.704;6.536;2023-02-15T01:54:59;180.48;;;51.38;;
58338;SDS011;48278;52.704;6.536;2023-02-15T01:57:25;177.40;;;52.25;;
58338;SDS011;48278;52.704;6.536;2023-02-15T01:59:54;175.95;;;50.03;;
58338;SDS011;48278;52.704;6.536;2023-02-15T02:02:23;164.35;;;48.20;;
58338;SDS011;48278;52.704;6.536;2023-02-15T02:04:50;173.65;;;51.58;;
58338;SDS011;48278;52.704;6.536;2023-02-15T02:07:19;164.88;;;48.03;;
58338;SDS011;48278;52.704;6.536;2023-02-15T02:09:47;164.70;;;48.85;;
58338;SDS011;48278;52.704;6.536;2023-02-15T02:12:14;151.00;;;46.90;;
58338;SDS011;48278;52.704;6.536;2023-02-15T02:14:43;163.13;;;46.97;;
58338;SDS011;48278;52.704;6.536;2023-02-15T02:17:17;167.02;;;48.05;;
58338;SDS011;48278;52.704;6.536;2023-02-15T02:25:52;175.57;;;47.67;;
58338;SDS011;48278;52.704;6.536;2023-02-15T02:31:13;182.30;;;49.97;;
58338;SDS011;48278;52.704;6.536;2023-02-15T02:39:10;180.85;;;50.67;;
58338;SDS011;48278;52.704;6.536;2023-02-15T02:44:29;168.75;;;48.80;;
58338;SDS011;48278;52.704;6.536;2023-02-15T02:49:38;157.40;;;46.67;;
58338;SDS011;48278;52.704;6.536;2023-02-15T02:52:52;159.75;;;46.92;;
58338;SDS011;48278;52.704;6.536;2023-02-15T02:54:57;150.00;;;46.88;;
58338;SDS011;48278;52.704;6.536;2023-02-15T02:57:24;160.15;;;46.88;;
58338;SDS011;48278;52.704;6.536;2023-02-15T02:59:53;156.18;;;45.47;;
58338;SDS011;48278;52.704;6.536;2023-02-15T03:02:22;183.75;;;49.45;;
58338;SDS011;48278;52.704;6.536;2023-02-15T03:04:55;193.27;;;49.05;;
58338;SDS011;48278;52.704;6.536;2023-02-15T03:07:29;198.80;;;51.65;;
58338;SDS011;48278;52.704;6.536;2023-02-15T03:10:00;181.25;;;50.15;;
58338;SDS011;48278;52.704;6.536;2023-02-15T03:12:28;180.30;;;49.53;;
58338;SDS011;48278;52.704;6.536;2023-02-15T03:15:25;181.43;;;49.92;;
58338;SDS011;48278;52.704;6.536;2023-02-15T03:18:16;189.95;;;48.97;;
58338;SDS011;48278;52.704;6.536;2023-02-15T03:20:45;210.23;;;53.05;;
58338;SDS011;48278;52.704;6.536;2023-02-15T03:23:16;240.00;;;53.03;;
58338;SDS011;48278;52.704;6.536;2023-02-15T03:25:55;265.27;;;54.40;;
58338;SDS011;48278;52.704;6.536;2023-02-15T03:28:25;290.67;;;56.65;;
58338;SDS011;48278;52.704;6.536;2023-02-15T03:30:57;374.33;;;57.65;;
58338;SDS011;48278;52.704;6.536;2023-02-15T03:33:27;285.08;;;53.22;;
58338;SDS011;48278;52.704;6.536;2023-02-15T03:36:01;281.35;;;51.05;;
58338;SDS011;48278;52.704;6.536;2023-02-15T03:39:33;231.82;;;46.72;;
58338;SDS011;48278;52.704;6.536;2023-02-15T03:41:28;289.30;;;52.92;;
58338;SDS011;48278;52.704;6.536;2023-02-15T03:44:11;204.10;;;46.20;;
58338;SDS011;48278;52.704;6.536;2023-02-15T03:47:09;261.80;;;49.90;;
58338;SDS011;48278;52.704;6.536;2023-02-15T03:49:59;251.75;;;48.88;;
58338;SDS011;48278;52.704;6.536;2023-02-15T03:52:51;212.45;;;44.88;;
58338;SDS011;48278;52.704;6.536;2023-02-15T03:55:17;240.95;;;48.25;;
58338;SDS011;48278;52.704;6.536;2023-02-15T03:57:43;234.80;;;47.00;;
58338;SDS011;48278;52.704;6.536;2023-02-15T04:00:28;239.30;;;49.38;;
58338;SDS011;48278;52.704;6.536;2023-02-15T04:03:33;265.13;;;50.15;;
58338;SDS011;48278;52.704;6.536;2023-02-15T04:06:04;322.30;;;49.90;;
58338;SDS011;48278;52.704;6.536;2023-02-15T04:08:30;268.90;;;53.40;;
58338;SDS011;48278;52.704;6.536;2023-02-15T04:11:16;321.67;;;49.92;;
58338;SDS011;48278;52.704;6.536;2023-02-15T04:13:42;260.63;;;46.00;;
58338;SDS011;48278;52.704;6.536;2023-02-15T04:16:08;272.38;;;54.08;;
58338;SDS011;48278;52.704;6.536;2023-02-15T04:18:41;240.65;;;49.08;;
58338;SDS011;48278;52.704;6.536;2023-02-15T04:21:27;222.40;;;46.17;;
58338;SDS011;48278;52.704;6.536;2023-02-15T04:24:13;209.88;;;50.45;;
58338;SDS011;48278;52.704;6.536;2023-02-15T04:26:59;183.77;;;43.05;;
58338;SDS011;48278;52.704;6.536;2023-02-15T04:29:26;193.27;;;43.72;;
58338;SDS011;48278;52.704;6.536;2023-02-15T04:31:53;178.30;;;44.55;;
58338;SDS011;48278;52.704;6.536;2023-02-15T04:34:20;297.55;;;52.75;;
58338;SDS011;48278;52.704;6.536;2023-02-15T04:36:46;177.48;;;44.13;;
58338;SDS011;48278;52.704;6.536;2023-02-15T04:39:12;158.48;;;42.75;;
58338;SDS011;48278;52.704;6.536;2023-02-15T04:41:38;151.05;;;40.78;;
58338;SDS011;48278;52.704;6.536;2023-02-15T04:44:04;133.48;;;42.85;;
58338;SDS011;48278;52.704;6.536;2023-02-15T04:46:30;133.75;;;41.78;;
58338;SDS011;48278;52.704;6.536;2023-02-15T04:48:56;141.40;;;41.63;;
58338;SDS011;48278;52.704;6.536;2023-02-15T04:51:22;128.93;;;42.38;;
58338;SDS011;48278;52.704;6.536;2023-02-15T04:53:48;136.55;;;42.55;;
58338;SDS011;48278;52.704;6.536;2023-02-15T04:56:14;127.22;;;41.75;;
58338;SDS011;48278;52.704;6.536;2023-02-15T04:58:40;122.95;;;39.92;;
58338;SDS011;48278;52.704;6.536;2023-02-15T05:01:06;116.60;;;41.33;;
58338;SDS011;48278;52.704;6.536;2023-02-15T05:03:33;115.82;;;40.38;;
58338;SDS011;48278;52.704;6.536;2023-02-15T05:05:59;125.87;;;40.63;;
58338;SDS011;48278;52.704;6.536;2023-02-15T05:08:25;111.10;;;40.17;;
58338;SDS011;48278;52.704;6.536;2023-02-15T05:10:51;113.30;;;40.08;;
58338;SDS011;48278;52.704;6.536;2023-02-15T05:13:17;135.60;;;42.95;;
58338;SDS011;48278;52.704;6.536;2023-02-15T05:15:46;120.38;;;41.50;;
58338;SDS011;48278;52.704;6.536;2023-02-15T05:18:13;129.77;;;42.28;;
58338;SDS011;48278;52.704;6.536;2023-02-15T05:20:39;141.88;;;44.38;;
58338;SDS011;48278;52.704;6.536;2023-02-15T05:23:05;129.85;;;42.80;;
58338;SDS011;48278;52.704;6.536;2023-02-15T05:25:30;131.25;;;43.45;;
58338;SDS011;48278;52.704;6.536;2023-02-15T05:28:14;136.23;;;43.20;;
58338;SDS011;48278;52.704;6.536;2023-02-15T05:33:12;130.82;;;45.08;;
58338;SDS011;48278;52.704;6.536;2023-02-15T05:35:37;129.20;;;42.15;;
58338;SDS011;48278;52.704;6.536;2023-02-15T05:38:03;119.90;;;42.35;;
58338;SDS011;48278;52.704;6.536;2023-02-15T05:40:29;133.40;;;42.65;;
58338;SDS011;48278;52.704;6.536;2023-02-15T05:42:55;129.50;;;42.90;;
58338;SDS011;48278;52.704;6.536;2023-02-15T05:45:22;132.05;;;42.90;;
58338;SDS011;48278;52.704;6.536;2023-02-15T05:47:48;124.90;;;42.30;;
58338;SDS011;48278;52.704;6.536;2023-02-15T05:50:14;139.80;;;45.72;;
58338;SDS011;48278;52.704;6.536;2023-02-15T05:52:40;141.02;;;45.72;;
58338;SDS011;48278;52.704;6.536;2023-02-15T05:55:05;127.65;;;43.03;;
58338;SDS011;48278;52.704;6.536;2023-02-15T05:57:33;115.93;;;39.85;;
58338;SDS011;48278;52.704;6.536;2023-02-15T06:00:00;140.15;;;45.20;;
58338;SDS011;48278;52.704;6.536;2023-02-15T06:02:29;135.43;;;45.15;;
58338;SDS011;48278;52.704;6.536;2023-02-15T06:04:58;155.32;;;53.17;;
58338;SDS011;48278;52.704;6.536;2023-02-15T06:07:24;160.57;;;56.72;;
58338;SDS011;48278;52.704;6.536;2023-02-15T06:09:49;137.63;;;47.22;;
58338;SDS011;48278;52.704;6.536;2023-02-15T06:12:15;139.15;;;44.22;;
58338;SDS011;48278;52.704;6.536;2023-02-15T06:14:41;142.48;;;43.40;;
58338;SDS011;48278;52.704;6.536;2023-02-15T06:17:06;140.82;;;42.60;;
58338;SDS011;48278;52.704;6.536;2023-02-15T06:19:32;137.57;;;41.45;;
58338;SDS011;48278;52.704;6.536;2023-02-15T06:21:58;140.18;;;43.22;;
58338;SDS011;48278;52.704;6.536;2023-02-15T06:24:24;131.20;;;40.97;;
58338;SDS011;48278;52.704;6.536;2023-02-15T06:26:49;145.65;;;42.58;;
58338;SDS011;48278;52.704;6.536;2023-02-15T06:29:15;136.07;;;41.95;;
58338;SDS011;48278;52.704;6.536;2023-02-15T06:31:41;131.90;;;38.60;;
58338;SDS011;48278;52.704;6.536;2023-02-15T06:34:07;143.65;;;43.05;;
58338;SDS011;48278;52.704;6.536;2023-02-15T06:36:38;151.95;;;44.28;;
58338;SDS011;48278;52.704;6.536;2023-02-15T06:39:04;147.88;;;44.20;;
58338;SDS011;48278;52.704;6.536;2023-02-15T06:41:33;149.77;;;44.13;;
58338;SDS011;48278;52.704;6.536;2023-02-15T06:43:59;138.65;;;42.88;;
58338;SDS011;48278;52.704;6.536;2023-02-15T06:46:25;148.23;;;41.72;;
58338;SDS011;48278;52.704;6.536;2023-02-15T06:48:51;150.65;;;45.15;;
58338;SDS011;48278;52.704;6.536;2023-02-15T06:51:17;146.93;;;42.72;;
58338;SDS011;48278;52.704;6.536;2023-02-15T06:53:42;158.75;;;45.58;;
58338;SDS011;48278;52.704;6.536;2023-02-15T06:56:09;146.82;;;44.22;;
58338;SDS011;48278;52.704;6.536;2023-02-15T06:58:36;154.88;;;44.15;;
58338;SDS011;48278;52.704;6.536;2023-02-15T07:01:02;141.18;;;40.20;;
58338;SDS011;48278;52.704;6.536;2023-02-15T07:03:28;140.38;;;43.30;;
58338;SDS011;48278;52.704;6.536;2023-02-15T07:05:55;148.18;;;43.08;;
58338;SDS011;48278;52.704;6.536;2023-02-15T07:08:22;151.95;;;43.03;;
58338;SDS011;48278;52.704;6.536;2023-02-15T07:10:49;153.23;;;44.22;;
58338;SDS011;48278;52.704;6.536;2023-02-15T07:13:15;147.65;;;42.88;;
58338;SDS011;48278;52.704;6.536;2023-02-15T07:15:42;141.02;;;41.38;;
58338;SDS011;48278;52.704;6.536;2023-02-15T07:18:08;134.55;;;39.13;;
58338;SDS011;48278;52.704;6.536;2023-02-15T07:20:36;123.72;;;37.63;;
58338;SDS011;48278;52.704;6.536;2023-02-15T07:23:02;120.18;;;37.50;;
58338;SDS011;48278;52.704;6.536;2023-02-15T07:25:29;135.15;;;39.90;;
58338;SDS011;48278;52.704;6.536;2023-02-15T07:27:58;134.60;;;39.67;;
58338;SDS011;48278;52.704;6.536;2023-02-15T07:30:25;134.35;;;40.67;;
58338;SDS011;48278;52.704;6.536;2023-02-15T07:32:54;137.77;;;37.47;;
58338;SDS011;48278;52.704;6.536;2023-02-15T07:35:49;138.07;;;39.53;;
58338;SDS011;48278;52.704;6.536;2023-02-15T07:38:19;148.40;;;41.50;;
58338;SDS011;48278;52.704;6.536;2023-02-15T07:40:46;142.48;;;39.58;;
58338;SDS011;48278;52.704;6.536;2023-02-15T07:43:12;138.82;;;42.05;;
58338;SDS011;48278;52.704;6.536;2023-02-15T07:45:38;144.60;;;40.78;;
58338;SDS011;48278;52.704;6.536;2023-02-15T07:48:05;139.63;;;41.03;;
58338;SDS011;48278;52.704;6.536;2023-02-15T07:50:31;148.23;;;42.35;;
58338;SDS011;48278;52.704;6.536;2023-02-15T07:52:57;140.25;;;40.42;;
58338;SDS011;48278;52.704;6.536;2023-02-15T07:55:23;162.23;;;44.38;;
58338;SDS011;48278;52.704;6.536;2023-02-15T07:57:50;153.52;;;43.30;;
58338;SDS011;48278;52.704;6.536;2023-02-15T08:00:17;155.55;;;42.88;;
58338;SDS011;48278;52.704;6.536;2023-02-15T08:02:50;173.25;;;47.65;;
58338;SDS011;48278;52.704;6.536;2023-02-15T08:05:35;161.63;;;44.88;;
58338;SDS011;48278;52.704;6.536;2023-02-15T08:08:01;164.47;;;45.00;;
58338;SDS011;48278;52.704;6.536;2023-02-15T08:10:27;158.77;;;44.30;;
58338;SDS011;48278;52.704;6.536;2023-02-15T08:13:11;163.32;;;45.00;;
58338;SDS011;48278;52.704;6.536;2023-02-15T08:15:37;169.02;;;46.17;;
58338;SDS011;48278;52.704;6.536;2023-02-15T08:18:03;161.90;;;46.08;;
58338;SDS011;48278;52.704;6.536;2023-02-15T08:20:29;172.02;;;47.25;;
58338;SDS011;48278;52.704;6.536;2023-02-15T08:22:56;189.63;;;48.05;;
58338;SDS011;48278;52.704;6.536;2023-02-15T08:25:21;185.45;;;47.35;;
58338;SDS011;48278;52.704;6.536;2023-02-15T08:27:47;171.60;;;46.03;;
58338;SDS011;48278;52.704;6.536;2023-02-15T08:30:14;172.82;;;46.25;;
58338;SDS011;48278;52.704;6.536;2023-02-15T08:32:40;188.38;;;46.65;;
58338;SDS011;48278;52.704;6.536;2023-02-15T08:35:05;191.02;;;49.58;;
58338;SDS011;48278;52.704;6.536;2023-02-15T08:37:31;194.05;;;54.75;;
58338;SDS011;48278;52.704;6.536;2023-02-15T08:39:57;211.73;;;54.25;;
58338;SDS011;48278;52.704;6.536;2023-02-15T08:42:23;199.68;;;52.08;;
58338;SDS011;48278;52.704;6.536;2023-02-15T08:44:48;197.18;;;53.20;;
58338;SDS011;48278;52.704;6.536;2023-02-15T08:47:16;209.63;;;51.65;;
58338;SDS011;48278;52.704;6.536;2023-02-15T08:49:42;201.90;;;51.00;;
58338;SDS011;48278;52.704;6.536;2023-02-15T08:52:07;211.18;;;53.45;;
58338;SDS011;48278;52.704;6.536;2023-02-15T08:54:33;223.30;;;55.72;;
58338;SDS011;48278;52.704;6.536;2023-02-15T08:56:59;209.85;;;52.50;;
58338;SDS011;48278;52.704;6.536;2023-02-15T08:59:25;218.05;;;56.10;;
58338;SDS011;48278;52.704;6.536;2023-02-15T09:01:52;207.38;;;54.17;;
58338;SDS011;48278;52.704;6.536;2023-02-15T09:04:19;208.02;;;54.05;;
58338;SDS011;48278;52.704;6.536;2023-02-15T09:06:46;245.00;;;57.05;;
58338;SDS011;48278;52.704;6.536;2023-02-15T09:09:12;218.90;;;53.20;;
58338;SDS011;48278;52.704;6.536;2023-02-15T09:11:40;219.13;;;53.28;;
58338;SDS011;48278;52.704;6.536;2023-02-15T09:14:14;212.23;;;55.08;;
58338;SDS011;48278;52.704;6.536;2023-02-15T09:16:43;217.40;;;54.90;;
58338;SDS011;48278;52.704;6.536;2023-02-15T09:19:15;226.27;;;58.17;;
58338;SDS011;48278;52.704;6.536;2023-02-15T09:21:43;227.32;;;58.63;;
58338;SDS011;48278;52.704;6.536;2023-02-15T09:24:09;225.77;;;56.15;;
58338;SDS011;48278;52.704;6.536;2023-02-15T09:26:38;221.38;;;55.47;;
58338;SDS011;48278;52.704;6.536;2023-02-15T09:29:08;222.18;;;55.17;;
58338;SDS011;48278;52.704;6.536;2023-02-15T09:31:40;219.50;;;56.17;;
58338;SDS011;48278;52.704;6.536;2023-02-15T09:34:14;222.43;;;55.90;;
58338;SDS011;48278;52.704;6.536;2023-02-15T09:36:42;221.30;;;57.53;;
58338;SDS011;48278;52.704;6.536;2023-02-15T09:56:02;201.32;;;53.47;;
58338;SDS011;48278;52.704;6.536;2023-02-15T10:05:17;198.07;;;54.40;;
58338;SDS011;48278;52.704;6.536;2023-02-15T10:19:36;182.98;;;51.80;;
58338;SDS011;48278;52.704;6.536;2023-02-15T10:25:14;181.48;;;53.17;;
58338;SDS011;48278;52.704;6.536;2023-02-15T10:27:45;174.35;;;50.90;;
58338;SDS011;48278;52.704;6.536;2023-02-15T10:30:13;178.57;;;50.20;;
58338;SDS011;48278;52.704;6.536;2023-02-15T10:33:10;164.30;;;48.97;;
58338;SDS011;48278;52.704;6.536;2023-02-15T10:47:13;162.90;;;49.08;;
58338;SDS011;48278;52.704;6.536;2023-02-15T10:50:13;156.82;;;46.85;;
58338;SDS011;48278;52.704;6.536;2023-02-15T11:01:41;142.90;;;45.53;;
58338;SDS011;48278;52.704;6.536;2023-02-15T11:06:53;148.80;;;45.80;;
58338;SDS011;48278;52.704;6.536;2023-02-15T11:09:22;139.27;;;42.95;;
58338;SDS011;48278;52.704;6.536;2023-02-15T11:11:55;142.55;;;44.58;;
58338;SDS011;48278;52.704;6.536;2023-02-15T11:17:14;141.15;;;45.28;;
58338;SDS011;48278;52.704;6.536;2023-02-15T11:19:54;137.10;;;44.75;;
58338;SDS011;48278;52.704;6.536;2023-02-15T11:22:28;130.38;;;41.53;;
58338;SDS011;48278;52.704;6.536;2023-02-15T11:24:57;143.15;;;45.25;;
58338;SDS011;48278;52.704;6.536;2023-02-15T11:30:04;125.18;;;40.50;;
58338;SDS011;48278;52.704;6.536;2023-02-15T11:32:44;124.75;;;41.60;;
58338;SDS011;48278;52.704;6.536;2023-02-15T11:40:41;127.45;;;40.90;;
58338;SDS011;48278;52.704;6.536;2023-02-15T11:43:14;122.03;;;41.05;;
58338;SDS011;48278;52.704;6.536;2023-02-15T11:45:54;129.38;;;41.17;;
58338;SDS011;48278;52.704;6.536;2023-02-15T11:48:20;117.18;;;40.00;;
58338;SDS011;48278;52.704;6.536;2023-02-15T11:50:46;118.50;;;42.15;;
58338;SDS011;48278;52.704;6.536;2023-02-15T11:53:13;117.30;;;41.00;;
58338;SDS011;48278;52.704;6.536;2023-02-15T11:55:44;128.43;;;41.72;;
58338;SDS011;48278;52.704;6.536;2023-02-15T12:03:50;117.90;;;39.90;;
58338;SDS011;48278;52.704;6.536;2023-02-15T12:06:26;123.97;;;40.75;;
58338;SDS011;48278;52.704;6.536;2023-02-15T12:11:36;109.00;;;37.45;;
58338;SDS011;48278;52.704;6.536;2023-02-15T12:14:07;107.15;;;38.30;;
58338;SDS011;48278;52.704;6.536;2023-02-15T12:16:42;120.43;;;39.75;;
58338;SDS011;48278;52.704;6.536;2023-02-15T12:19:20;109.60;;;38.22;;
58338;SDS011;48278;52.704;6.536;2023-02-15T12:21:51;108.53;;;37.22;;
58338;SDS011;48278;52.704;6.536;2023-02-15T12:24:20;109.22;;;38.50;;
58338;SDS011;48278;52.704;6.536;2023-02-15T12:26:58;115.20;;;41.30;;
58338;SDS011;48278;52.704;6.536;2023-02-15T12:29:34;108.15;;;39.58;;
58338;SDS011;48278;52.704;6.536;2023-02-15T12:32:05;114.32;;;40.22;;
58338;SDS011;48278;52.704;6.536;2023-02-15T12:34:37;103.95;;;37.17;;
58338;SDS011;48278;52.704;6.536;2023-02-15T12:37:15;109.03;;;37.65;;
58338;SDS011;48278;52.704;6.536;2023-02-15T12:40:00;108.65;;;36.90;;
58338;SDS011;48278;52.704;6.536;2023-02-15T12:42:43;114.05;;;37.65;;
58338;SDS011;48278;52.704;6.536;2023-02-15T12:50:35;108.22;;;37.35;;
58338;SDS011;48278;52.704;6.536;2023-02-15T12:53:11;107.00;;;37.22;;
58338;SDS011;48278;52.704;6.536;2023-02-15T12:56:00;108.38;;;38.65;;
58338;SDS011;48278;52.704;6.536;2023-02-15T12:58:31;102.35;;;36.05;;
58338;SDS011;48278;52.704;6.536;2023-02-15T13:01:01;105.25;;;38.03;;
58338;SDS011;48278;52.704;6.536;2023-02-15T13:03:35;96.75;;;34.05;;
58338;SDS011;48278;52.704;6.536;2023-02-15T13:06:02;100.28;;;33.42;;
58338;SDS011;48278;52.704;6.536;2023-02-15T13:08:54;98.97;;;33.25;;
58338;SDS011;48278;52.704;6.536;2023-02-15T13:11:31;102.60;;;33.72;;
58338;SDS011;48278;52.704;6.536;2023-02-15T13:14:03;94.43;;;33.50;;
58338;SDS011;48278;52.704;6.536;2023-02-15T13:16:42;94.50;;;33.70;;
58338;SDS011;48278;52.704;6.536;2023-02-15T13:21:43;100.40;;;31.95;;
58338;SDS011;48278;52.704;6.536;2023-02-15T13:26:52;83.50;;;27.40;;
58338;SDS011;48278;52.704;6.536;2023-02-15T13:29:22;89.78;;;33.13;;
58338;SDS011;48278;52.704;6.536;2023-02-15T13:31:53;97.18;;;32.45;;
58338;SDS011;48278;52.704;6.536;2023-02-15T13:34:33;87.53;;;30.40;;
58338;SDS011;48278;52.704;6.536;2023-02-15T13:47:17;91.32;;;32.25;;
58338;SDS011;48278;52.704;6.536;2023-02-15T13:52:30;87.10;;;32.60;;
58338;SDS011;48278;52.704;6.536;2023-02-15T14:11:54;83.40;;;28.80;;
58338;SDS011;48278;52.704;6.536;2023-02-15T14:17:40;80.05;;;27.08;;
58338;SDS011;48278;52.704;6.536;2023-02-15T14:20:15;82.55;;;27.85;;
58338;SDS011;48278;52.704;6.536;2023-02-15T14:22:58;77.65;;;28.20;;
58338;SDS011;48278;52.704;6.536;2023-02-15T14:28:11;77.85;;;27.50;;
58338;SDS011;48278;52.704;6.536;2023-02-15T14:30:44;78.30;;;26.58;;
58338;SDS011;48278;52.704;6.536;2023-02-15T14:35:40;85.72;;;27.88;;
58338;SDS011;48278;52.704;6.536;2023-02-15T14:41:07;82.28;;;26.83;;
58338;SDS011;48278;52.704;6.536;2023-02-15T14:47:00;82.10;;;27.30;;
58338;SDS011;48278;52.704;6.536;2023-02-15T14:49:35;79.65;;;27.00;;
58338;SDS011;48278;52.704;6.536;2023-02-15T14:52:04;78.18;;;27.05;;
58338;SDS011;48278;52.704;6.536;2023-02-15T14:59:35;88.47;;;28.30;;
58338;SDS011;48278;52.704;6.536;2023-02-15T15:02:25;83.55;;;27.58;;
58338;SDS011;48278;52.704;6.536;2023-02-15T15:07:20;86.53;;;30.70;;
58338;SDS011;48278;52.704;6.536;2023-02-15T15:09:59;85.10;;;29.17;;
58338;SDS011;48278;52.704;6.536;2023-02-15T15:12:41;87.25;;;29.92;;
58338;SDS011;48278;52.704;6.536;2023-02-15T15:15:13;81.28;;;29.70;;
58338;SDS011;48278;52.704;6.536;2023-02-15T15:17:53;89.53;;;31.13;;
58338;SDS011;48278;52.704;6.536;2023-02-15T15:25:48;93.72;;;32.72;;
58338;SDS011;48278;52.704;6.536;2023-02-15T15:31:04;105.05;;;36.97;;
58338;SDS011;48278;52.704;6.536;2023-02-15T15:50:57;95.68;;;33.15;;
58338;SDS011;48278;52.704;6.536;2023-02-15T15:53:49;108.05;;;35.55;;
58338;SDS011;48278;52.704;6.536;2023-02-15T15:56:22;101.63;;;36.40;;
58338;SDS011;48278;52.704;6.536;2023-02-15T15:58:56;101.88;;;34.22;;
58338;SDS011;48278;52.704;6.536;2023-02-15T16:01:33;102.07;;;34.78;;
58338;SDS011;48278;52.704;6.536;2023-02-15T16:04:10;98.55;;;34.88;;
58338;SDS011;48278;52.704;6.536;2023-02-15T16:06:38;101.05;;;34.30;;
58338;SDS011;48278;52.704;6.536;2023-02-15T16:11:38;109.00;;;36.28;;
58338;SDS011;48278;52.704;6.536;2023-02-15T16:14:47;108.43;;;35.13;;
58338;SDS011;48278;52.704;6.536;2023-02-15T16:16:59;103.65;;;34.17;;
58338;SDS011;48278;52.704;6.536;2023-02-15T16:19:28;114.72;;;37.97;;
58338;SDS011;48278;52.704;6.536;2023-02-15T16:21:57;120.00;;;40.17;;
58338;SDS011;48278;52.704;6.536;2023-02-15T16:24:33;124.85;;;40.80;;
58338;SDS011;48278;52.704;6.536;2023-02-15T16:29:40;114.28;;;36.22;;
58338;SDS011;48278;52.704;6.536;2023-02-15T16:32:17;117.60;;;37.55;;
58338;SDS011;48278;52.704;6.536;2023-02-15T16:35:01;109.53;;;36.65;;
58338;SDS011;48278;52.704;6.536;2023-02-15T16:37:31;107.03;;;35.60;;
58338;SDS011;48278;52.704;6.536;2023-02-15T16:39:58;101.45;;;33.80;;
58338;SDS011;48278;52.704;6.536;2023-02-15T16:42:24;114.32;;;36.63;;
58338;SDS011;48278;52.704;6.536;2023-02-15T16:44:51;103.40;;;35.17;;
58338;SDS011;48278;52.704;6.536;2023-02-15T16:47:26;124.57;;;36.50;;
58338;SDS011;48278;52.704;6.536;2023-02-15T16:49:55;111.35;;;34.70;;
58338;SDS011;48278;52.704;6.536;2023-02-15T16:52:26;105.75;;;35.17;;
58338;SDS011;48278;52.704;6.536;2023-02-15T16:54:58;112.97;;;35.40;;
58338;SDS011;48278;52.704;6.536;2023-02-15T16:57:28;118.65;;;36.40;;
58338;SDS011;48278;52.704;6.536;2023-02-15T17:00:00;119.97;;;37.05;;
58338;SDS011;48278;52.704;6.536;2023-02-15T17:02:32;117.63;;;36.45;;
58338;SDS011;48278;52.704;6.536;2023-02-15T17:07:40;124.13;;;37.22;;
58338;SDS011;48278;52.704;6.536;2023-02-15T17:10:26;125.72;;;38.72;;
58338;SDS011;48278;52.704;6.536;2023-02-15T17:13:11;129.75;;;38.72;;
58338;SDS011;48278;52.704;6.536;2023-02-15T17:18:06;119.43;;;36.75;;
58338;SDS011;48278;52.704;6.536;2023-02-15T17:20:41;128.13;;;36.90;;
58338;SDS011;48278;52.704;6.536;2023-02-15T17:25:52;117.93;;;38.58;;
58338;SDS011;48278;52.704;6.536;2023-02-15T17:28:19;126.18;;;39.05;;
58338;SDS011;48278;52.704;6.536;2023-02-15T17:30:47;125.10;;;39.00;;
58338;SDS011;48278;52.704;6.536;2023-02-15T17:33:58;130.80;;;41.17;;
58338;SDS011;48278;52.704;6.536;2023-02-15T17:36:11;132.85;;;40.25;;
58338;SDS011;48278;52.704;6.536;2023-02-15T17:41:22;141.90;;;42.92;;
58338;SDS011;48278;52.704;6.536;2023-02-15T17:43:54;145.68;;;43.75;;
58338;SDS011;48278;52.704;6.536;2023-02-15T17:46:21;136.70;;;41.22;;
58338;SDS011;48278;52.704;6.536;2023-02-15T17:48:49;139.95;;;42.67;;
58338;SDS011;48278;52.704;6.536;2023-02-15T17:51:17;150.77;;;44.55;;
58338;SDS011;48278;52.704;6.536;2023-02-15T17:53:44;138.93;;;42.53;;
58338;SDS011;48278;52.704;6.536;2023-02-15T17:56:34;135.68;;;38.70;;
58338;SDS011;48278;52.704;6.536;2023-02-15T17:59:01;130.55;;;40.28;;
58338;SDS011;48278;52.704;6.536;2023-02-15T18:01:32;134.68;;;40.38;;
58338;SDS011;48278;52.704;6.536;2023-02-15T18:04:18;143.73;;;41.15;;
58338;SDS011;48278;52.704;6.536;2023-02-15T18:07:03;153.30;;;42.95;;
58338;SDS011;48278;52.704;6.536;2023-02-15T18:09:48;146.75;;;42.90;;